Time;durP1;ratioP1;P1;durP2;ratioP2;P2;SDS_P1;SDS_P2;PMS_P1;PMS_P2;Temp;Humidity;BMP_temperature;BMP_pressure;BME280_temperature;BME280_humidity;BME280_pressure;Samples;Min_cycle;Max_cycle;Signal;HPM_P1;HPM_P2
2021/03/04 16:26:18;;;;;;;59.45;29.33;;;5.70;84.90;;;;;;5125850;27;20384;-92
2021/03/04 16:28:45;;;;;;;50.47;27.08;;;5.60;86.20;;;;;;5112279;28;20537;-90
2021/03/04 16:31:11;;;;;;;53.65;29.05;;;5.70;87.20;;;;;;5093217;28;20020;-91
2021/03/04 16:33:37;;;;;;;54.72;29.08;;;5.70;87.60;;;;;;5093348;28;20073;-90
2021/03/04 17:40:14;;;;;;;45.95;25.38;;;4.70;88.40;;;;;;5070443;28;20799;-94
2021/03/04 17:42:40;;;;;;;57.92;27.23;;;4.70;90.10;;;;;;5037648;28;20033;-95
2021/03/04 17:45:06;;;;;;;52.33;27.92;;;4.70;90.80;;;;;;5032634;28;20482;-93
2021/03/04 17:47:32;;;;;;;47.60;27.35;;;4.80;91.00;;;;;;5037367;28;20030;-96
2021/03/04 17:58:22;;;;;;;53.38;26.52;;;4.90;90.00;;;;;;5072640;27;20381;-95
2021/03/04 18:00:51;;;;;;;48.90;26.30;;;4.90;90.40;;;;;;5050383;28;20478;-95
2021/03/04 18:03:17;;;;;;;51.63;27.27;;;4.90;90.70;;;;;;5055160;28;20473;-95
2021/03/04 18:05:42;;;;;;;45.92;25.50;;;4.90;90.90;;;;;;5050016;28;20083;-94
2021/03/04 18:08:09;;;;;;;47.70;26.08;;;5.00;91.00;;;;;;5051598;28;20021;-95
2021/03/04 18:10:35;;;;;;;46.85;26.35;;;5.10;91.10;;;;;;5056178;28;20053;-94
2021/03/04 18:13:00;;;;;;;50.75;27.13;;;5.10;91.10;;;;;;5053116;28;20025;-96
2021/03/04 18:15:26;;;;;;;48.15;27.33;;;5.10;91.10;;;;;;5051450;28;20108;-94
2021/03/04 18:17:52;;;;;;;46.05;25.70;;;5.10;91.10;;;;;;5055867;28;20017;-95
2021/03/04 18:20:17;;;;;;;46.67;26.80;;;5.10;91.00;;;;;;5049205;28;20033;-95
2021/03/04 18:22:43;;;;;;;48.80;26.67;;;5.20;91.00;;;;;;5055600;28;20377;-94
2021/03/04 18:25:09;;;;;;;44.88;26.23;;;5.20;90.90;;;;;;5051091;28;20471;-93
2021/03/04 18:27:35;;;;;;;50.90;27.65;;;5.20;90.80;;;;;;5049914;28;20029;-95
2021/03/04 18:30:01;;;;;;;49.67;27.15;;;5.20;90.80;;;;;;5051376;28;20031;-95
2021/03/04 18:32:26;;;;;;;46.03;25.83;;;5.20;90.80;;;;;;5049869;28;20033;-96
2021/03/04 18:56:00;;;;;;;52.20;26.33;;;4.60;87.50;;;;;;5097107;28;20382;-95
2021/03/04 18:58:27;;;;;;;47.28;26.10;;;4.60;88.90;;;;;;5073436;28;20052;-94
2021/03/04 19:00:53;;;;;;;48.17;26.20;;;4.50;89.80;;;;;;5070582;28;20033;-96
2021/03/04 19:03:19;;;;;;;44.13;25.10;;;4.50;90.30;;;;;;5074485;28;20064;-96
2021/03/04 19:05:45;;;;;;;50.15;26.50;;;4.50;90.50;;;;;;5077627;28;20023;-95
2021/03/04 19:08:11;;;;;;;53.88;29.63;;;4.50;90.70;;;;;;5077855;28;20015;-96
2021/03/04 19:10:37;;;;;;;48.53;27.10;;;4.60;90.90;;;;;;5075129;28;20020;-96
2021/03/04 19:13:03;;;;;;;49.17;28.95;;;4.70;90.90;;;;;;5075660;28;20397;-96
2021/03/04 19:15:29;;;;;;;51.17;28.45;;;4.70;91.00;;;;;;5075958;28;20029;-96
2021/03/04 19:17:55;;;;;;;56.80;32.15;;;4.80;91.00;;;;;;5076682;28;20025;-96
2021/03/04 19:20:22;;;;;;;54.70;30.52;;;4.90;91.00;;;;;;5079229;28;20025;-96
2021/03/04 19:22:48;;;;;;;55.60;29.25;;;4.90;91.00;;;;;;5074385;28;20058;-95
2021/03/04 19:25:14;;;;;;;52.17;28.38;;;4.90;90.90;;;;;;5072296;28;20481;-95
2021/03/04 19:27:40;;;;;;;56.20;29.92;;;5.00;90.90;;;;;;5073481;28;20037;-96
2021/03/04 19:30:10;;;;;;;55.15;30.95;;;5.00;90.80;;;;;;5061483;28;20059;-96
2021/03/04 19:32:36;;;;;;;54.10;29.63;;;5.10;90.70;;;;;;5072732;28;20025;-96
2021/03/04 19:35:03;;;;;;;54.22;29.25;;;5.10;90.60;;;;;;5077331;28;20028;-96
2021/03/04 19:37:28;;;;;;;53.00;27.92;;;5.10;90.40;;;;;;5080474;28;20041;-95
2021/03/04 19:39:54;;;;;;;46.40;26.20;;;5.20;90.40;;;;;;5077810;28;20043;-96
2021/03/04 19:42:21;;;;;;;46.05;25.95;;;5.20;90.40;;;;;;5082082;28;20078;-96
2021/03/04 19:44:58;;;;;;;51.05;27.05;;;5.30;90.40;;;;;;5082585;28;20112;-96
2021/03/04 19:55:45;;;;;;;40.95;23.48;;;5.40;90.10;;;;;;5056130;23;20046;-95
2021/03/04 19:58:11;;;;;;;41.30;23.02;;;5.40;90.20;;;;;;5033163;28;20496;-95
2021/03/04 20:00:37;;;;;;;35.63;22.30;;;5.50;90.20;;;;;;5033428;28;20022;-95
2021/03/04 20:03:02;;;;;;;46.05;26.35;;;5.50;90.20;;;;;;5032821;28;20022;-95
2021/03/04 20:05:28;;;;;;;46.42;25.75;;;5.50;90.10;;;;;;5017928;28;20019;-95
2021/03/04 20:07:54;;;;;;;42.63;24.95;;;5.50;90.00;;;;;;4999055;28;20029;-96
2021/03/04 20:10:20;;;;;;;44.13;25.52;;;5.60;90.00;;;;;;4999900;28;20030;-95
2021/03/04 20:12:45;;;;;;;42.78;24.20;;;5.60;89.80;;;;;;4993708;28;20072;-95
2021/03/04 20:15:14;;;;;;;38.20;22.45;;;5.60;89.80;;;;;;4992987;28;20518;-94
2021/03/04 20:17:40;;;;;;;41.85;24.05;;;5.60;89.70;;;;;;4976751;28;20086;-95
2021/03/04 20:20:07;;;;;;;44.08;24.25;;;5.60;89.60;;;;;;4977186;28;20025;-95
2021/03/04 20:22:33;;;;;;;44.75;23.50;;;5.60;89.40;;;;;;4996366;28;20062;-95
2021/03/04 20:24:59;;;;;;;45.08;24.05;;;5.60;89.20;;;;;;4995706;28;20061;-93
2021/03/04 20:27:25;;;;;;;42.80;23.13;;;5.70;89.30;;;;;;4997453;28;20030;-94
2021/03/04 20:29:51;;;;;;;42.03;24.60;;;5.60;89.00;;;;;;4995959;28;20027;-95
2021/03/04 20:32:16;;;;;;;46.70;26.08;;;5.70;88.50;;;;;;4996011;28;20452;-94
2021/03/04 20:34:42;;;;;;;40.08;24.08;;;5.70;88.30;;;;;;4983653;28;20058;-96
2021/03/04 20:37:08;;;;;;;42.72;22.95;;;5.70;88.30;;;;;;4979110;28;20034;-95
2021/03/04 20:39:34;;;;;;;41.58;23.75;;;5.70;88.20;;;;;;4995780;28;20014;-95
2021/03/04 20:42:00;;;;;;;43.33;23.92;;;5.70;87.90;;;;;;4992587;28;20085;-94
